createdAt,value
2023-05-22T00:00:55.823Z,74.7
2023-05-22T00:01:57.335Z,74.8
2023-05-22T00:02:58.969Z,74.8
2023-05-22T00:04:00.190Z,74.8
2023-05-22T00:05:01.415Z,74.8
2023-05-22T00:06:02.601Z,74.9
2023-05-22T00:07:03.797Z,74.9
2023-05-22T00:08:04.951Z,74.9
2023-05-22T00:09:06.102Z,75
2023-05-22T00:10:07.264Z,75
2023-05-22T00:11:08.506Z,75
2023-05-22T00:12:09.666Z,75.1
2023-05-22T00:13:10.837Z,75.1
2023-05-22T00:14:11.995Z,75.1
2023-05-22T00:15:13.155Z,75.1
2023-05-22T00:16:14.331Z,75.2
2023-05-22T00:17:15.891Z,75.2
2023-05-22T00:18:17.038Z,75.2
2023-05-22T00:19:18.429Z,75.2
2023-05-22T00:20:19.587Z,75.3
2023-05-22T00:21:20.755Z,75.3
2023-05-22T00:22:21.946Z,75.3
2023-05-22T00:23:23.078Z,75.3
2023-05-22T00:24:24.243Z,75.4
2023-05-22T00:25:25.413Z,75.4
2023-05-22T00:26:26.644Z,75.4
2023-05-22T00:27:27.834Z,75.4
2023-05-22T00:28:28.990Z,75.5
2023-05-22T00:29:30.153Z,75.5
2023-05-22T00:30:31.321Z,75.5
2023-05-22T00:31:32.488Z,75.6
2023-05-22T00:32:33.788Z,75.6
2023-05-22T00:33:35.424Z,75.6
2023-05-22T00:34:36.685Z,75.6
2023-05-22T00:35:37.851Z,75.7
2023-05-22T00:36:39.012Z,75.7
2023-05-22T00:37:40.204Z,75.7
2023-05-22T00:38:41.347Z,75.7
2023-05-22T00:39:42.515Z,75.7
2023-05-22T00:40:43.676Z,75.7
2023-05-22T00:41:44.851Z,75.8
2023-05-22T00:42:46.015Z,75.8
2023-05-22T00:43:47.177Z,75.8
2023-05-22T00:44:48.356Z,75.8
2023-05-22T00:45:49.508Z,75.8
2023-05-22T00:46:50.740Z,75.9
2023-05-22T00:47:51.908Z,75.9
2023-05-22T00:48:53.117Z,75.9
2023-05-22T00:49:54.286Z,75.9
2023-05-22T00:50:55.463Z,75.9
2023-05-22T00:51:56.642Z,76
2023-05-22T00:52:57.898Z,76
2023-05-22T00:53:59.044Z,76
2023-05-22T00:55:00.204Z,76
2023-05-22T00:56:01.374Z,76.1
2023-05-22T00:57:02.537Z,76.1
2023-05-22T00:58:03.704Z,76.1
2023-05-22T00:59:04.869Z,76.1
2023-05-22T01:00:06.036Z,76.1
2023-05-22T01:01:07.200Z,76.2
2023-05-22T01:02:08.883Z,76.2
2023-05-22T01:03:10.347Z,76.2
2023-05-22T01:04:11.842Z,76.2
2023-05-22T01:05:13.348Z,76.2
2023-05-22T01:06:14.692Z,76.2
2023-05-22T01:07:15.858Z,76.2
2023-05-22T01:08:17.075Z,76.3
2023-05-22T01:09:18.214Z,76.3
2023-05-22T01:10:19.376Z,76.3
2023-05-22T01:11:20.544Z,76.3
2023-05-22T01:12:21.714Z,76.3
2023-05-22T01:13:22.879Z,76.3
2023-05-22T01:14:24.044Z,76.3
2023-05-22T01:15:25.210Z,76.3
2023-05-22T01:16:26.483Z,76.3
2023-05-22T01:17:27.799Z,76.3
2023-05-22T01:18:28.928Z,76.3
2023-05-22T01:19:30.412Z,76.3
2023-05-22T01:20:31.575Z,76.3
2023-05-22T01:21:32.740Z,76.2
2023-05-22T01:22:33.904Z,76.2
2023-05-22T01:23:35.097Z,76.2
2023-05-22T01:24:36.234Z,76.1
2023-05-22T01:25:37.408Z,76.1
2023-05-22T01:26:38.568Z,76.1
2023-05-22T01:27:39.738Z,76
2023-05-22T01:28:40.901Z,76
2023-05-22T01:29:42.063Z,76
2023-05-22T01:30:43.233Z,76
2023-05-22T01:31:44.395Z,76
2023-05-22T01:32:45.825Z,76
2023-05-22T01:33:47.243Z,76
2023-05-22T01:34:51.331Z,76
2023-05-22T01:35:52.502Z,76
2023-05-22T01:36:53.670Z,76.1
2023-05-22T01:37:54.849Z,76.1
2023-05-22T01:38:56.024Z,76.1
2023-05-22T01:39:57.164Z,76.1
2023-05-22T01:40:58.364Z,76.1
2023-05-22T01:41:59.529Z,76.1
2023-05-22T01:43:00.688Z,76.1
2023-05-22T01:44:04.253Z,76.2
2023-05-22T01:45:05.453Z,76.2
2023-05-22T01:46:06.669Z,76.2
2023-05-22T01:47:07.808Z,76.2
2023-05-22T01:48:09.094Z,76.2
2023-05-22T01:49:10.283Z,76.3
2023-05-22T01:50:11.459Z,76.3
2023-05-22T01:51:12.615Z,76.3
2023-05-22T01:52:13.790Z,76.3
2023-05-22T01:53:14.950Z,76.3
2023-05-22T01:54:16.138Z,76.4
2023-05-22T01:55:17.280Z,76.4
2023-05-22T01:56:18.449Z,76.4
2023-05-22T01:57:19.612Z,76.5
2023-05-22T01:58:20.772Z,76.5
2023-05-22T01:59:21.956Z,76.5
2023-05-22T02:00:23.115Z,76.6
2023-05-22T02:01:24.368Z,76.6
2023-05-22T02:02:25.790Z,76.6
2023-05-22T02:03:27.717Z,76.6
2023-05-22T02:04:28.951Z,76.6
2023-05-22T02:05:30.119Z,76.7
2023-05-22T02:06:31.276Z,76.7
2023-05-22T02:07:32.446Z,76.7
2023-05-22T02:08:33.616Z,76.7
2023-05-22T02:09:34.914Z,76.8
2023-05-22T02:10:36.041Z,76.8
2023-05-22T02:11:37.213Z,76.8
2023-05-22T02:12:38.381Z,76.9
2023-05-22T02:13:39.550Z,76.9
2023-05-22T02:14:40.709Z,76.9
2023-05-22T02:15:41.913Z,76.9
2023-05-22T02:16:43.071Z,76.9
2023-05-22T02:17:44.371Z,76.9
2023-05-22T02:18:45.655Z,76.9
2023-05-22T02:19:46.832Z,76.9
2023-05-22T02:20:47.987Z,76.8
2023-05-22T02:21:49.151Z,76.8
2023-05-22T02:22:50.329Z,76.8
2023-05-22T02:23:51.488Z,76.8
2023-05-22T02:24:52.732Z,76.8
2023-05-22T02:25:53.871Z,76.7
2023-05-22T02:26:55.045Z,76.7
2023-05-22T02:27:56.204Z,76.7
2023-05-22T02:28:57.369Z,76.7
2023-05-22T02:29:58.532Z,76.7
2023-05-22T02:30:59.837Z,76.7
2023-05-22T02:32:01.002Z,76.7
2023-05-22T02:33:02.230Z,76.6
2023-05-22T02:34:03.367Z,76.6
2023-05-22T02:35:04.535Z,76.6
2023-05-22T02:36:05.698Z,76.6
2023-05-22T02:37:06.935Z,76.6
2023-05-22T02:38:08.098Z,76.6
2023-05-22T02:39:09.262Z,76.6
2023-05-22T02:40:10.541Z,76.6
2023-05-22T02:41:11.683Z,76.6
2023-05-22T02:42:12.836Z,76.6
2023-05-22T02:43:14.037Z,76.6
2023-05-22T02:44:15.169Z,76.6
2023-05-22T02:45:19.216Z,76.6
2023-05-22T02:46:20.440Z,76.6
2023-05-22T02:47:21.608Z,76.6
2023-05-22T02:48:22.773Z,76.6
2023-05-22T02:49:23.962Z,76.6
2023-05-22T02:50:25.114Z,76.6
2023-05-22T02:51:26.273Z,76.6
2023-05-22T02:52:27.570Z,76.6
2023-05-22T02:53:28.765Z,76.6
2023-05-22T02:54:29.900Z,76.6
2023-05-22T02:55:31.119Z,76.6
2023-05-22T02:56:32.258Z,76.6
2023-05-22T02:57:33.428Z,76.6
2023-05-22T02:58:34.591Z,76.6
2023-05-22T02:59:35.757Z,76.6
2023-05-22T03:00:37.120Z,76.6
2023-05-22T03:01:38.377Z,76.6
2023-05-22T03:02:39.910Z,76.6
2023-05-22T03:03:41.318Z,76.7
2023-05-22T03:04:42.506Z,76.7
2023-05-22T03:05:43.703Z,76.7
2023-05-22T03:06:44.872Z,76.7
2023-05-22T03:07:49.351Z,76.8
2023-05-22T03:08:50.533Z,76.8
2023-05-22T03:09:51.676Z,76.8
2023-05-22T03:10:53.010Z,76.9
2023-05-22T03:11:54.137Z,76.9
2023-05-22T03:12:55.319Z,76.9
2023-05-22T03:13:56.466Z,76.9
2023-05-22T03:14:57.632Z,77
2023-05-22T03:15:58.859Z,77
2023-05-22T03:16:59.999Z,77
2023-05-22T03:18:01.253Z,77
2023-05-22T03:19:02.480Z,77
2023-05-22T03:20:03.661Z,77
2023-05-22T03:21:04.808Z,77
2023-05-22T03:22:05.975Z,77
2023-05-22T03:23:07.138Z,76.9
2023-05-22T03:24:08.328Z,76.9
2023-05-22T03:25:09.479Z,76.9
2023-05-22T03:26:10.665Z,76.9
2023-05-22T03:27:11.806Z,76.9
2023-05-22T03:28:12.969Z,76.9
2023-05-22T03:29:14.221Z,76.9
2023-05-22T03:30:15.400Z,76.9
2023-05-22T03:31:16.555Z,76.9
2023-05-22T03:32:17.724Z,76.9
2023-05-22T03:33:18.986Z,76.9
2023-05-22T03:34:20.142Z,76.9
2023-05-22T03:35:21.307Z,76.9
2023-05-22T03:36:22.488Z,76.9
2023-05-22T03:37:23.647Z,76.9
2023-05-22T03:38:24.815Z,76.9
2023-05-22T03:39:25.989Z,76.9
2023-05-22T03:40:27.145Z,76.9
2023-05-22T03:41:28.338Z,76.9
2023-05-22T03:42:29.482Z,76.9
2023-05-22T03:43:30.646Z,76.9
2023-05-22T03:44:31.811Z,76.9
2023-05-22T03:45:32.995Z,76.9
2023-05-22T03:46:34.145Z,76.9
2023-05-22T03:47:35.480Z,76.9
2023-05-22T03:48:36.645Z,76.9
2023-05-22T03:49:37.807Z,76.9
2023-05-22T03:50:39.754Z,77
2023-05-22T03:51:41.109Z,77
2023-05-22T03:52:42.274Z,77
2023-05-22T03:53:43.440Z,77
2023-05-22T03:54:44.606Z,77
2023-05-22T03:55:45.770Z,77
2023-05-22T03:56:47.026Z,77
2023-05-22T03:57:48.170Z,77
2023-05-22T03:58:49.337Z,77
2023-05-22T03:59:50.499Z,77
2023-05-22T04:00:51.670Z,77
2023-05-22T04:01:52.840Z,77
2023-05-22T04:02:54.292Z,77
2023-05-22T04:03:55.484Z,77.1
2023-05-22T04:04:59.851Z,77.1
2023-05-22T04:06:01.062Z,77.1
2023-05-22T04:07:02.328Z,77.1
2023-05-22T04:08:06.218Z,77.1
2023-05-22T04:09:07.388Z,77.1
2023-05-22T04:10:08.561Z,77.1
2023-05-22T04:11:09.721Z,77.1
2023-05-22T04:12:10.909Z,77.1
2023-05-22T04:13:14.804Z,77.1
2023-05-22T04:14:15.937Z,77.1
2023-05-22T04:15:17.098Z,77.1
2023-05-22T04:16:18.478Z,77.2
2023-05-22T04:17:19.638Z,77.2
2023-05-22T04:18:20.828Z,77.2
2023-05-22T04:19:22.351Z,77.2
2023-05-22T04:20:26.485Z,77.2
2023-05-22T04:21:27.743Z,77.2
2023-05-22T04:22:28.880Z,77.2
2023-05-22T04:23:30.053Z,77.2
2023-05-22T04:24:31.214Z,77.2
2023-05-22T04:25:32.393Z,77.2
2023-05-22T04:26:33.545Z,77.2
2023-05-22T04:27:34.858Z,77.2
2023-05-22T04:28:36.002Z,77.3
2023-05-22T04:29:37.168Z,77.3
2023-05-22T04:30:39.200Z,77.3
2023-05-22T04:31:40.570Z,77.3
2023-05-22T04:32:41.972Z,77.3
2023-05-22T04:33:43.130Z,77.3
2023-05-22T04:34:44.290Z,77.3
2023-05-22T04:35:45.482Z,77.3
2023-05-22T04:36:46.658Z,77.3
2023-05-22T04:37:47.807Z,77.3
2023-05-22T04:38:48.973Z,77.4
2023-05-22T04:39:50.139Z,77.4
2023-05-22T04:40:51.306Z,77.4
2023-05-22T04:41:52.476Z,77.4
2023-05-22T04:42:53.662Z,77.4
2023-05-22T04:43:54.807Z,77.4
2023-05-22T04:44:55.970Z,77.4
2023-05-22T04:45:57.136Z,77.4
2023-05-22T04:46:58.496Z,77.4
2023-05-22T04:47:59.887Z,77.4
2023-05-22T04:49:01.057Z,77.4
2023-05-22T04:50:02.225Z,77.4
2023-05-22T04:51:03.392Z,77.4
2023-05-22T04:52:04.558Z,77.4
2023-05-22T04:53:05.719Z,77.4
2023-05-22T04:54:06.884Z,77.4
2023-05-22T04:55:08.053Z,77.4
2023-05-22T04:56:09.278Z,77.4
2023-05-22T04:57:10.401Z,77.5
2023-05-22T04:58:11.620Z,77.5
2023-05-22T04:59:12.758Z,77.5
2023-05-22T05:00:13.921Z,77.5
2023-05-22T05:01:15.168Z,77.5
2023-05-22T05:02:16.310Z,77.5
2023-05-22T05:03:17.750Z,77.5
2023-05-22T05:04:18.914Z,77.6
2023-05-22T05:05:20.079Z,77.6
2023-05-22T05:06:21.243Z,77.6
2023-05-22T05:07:22.450Z,77.6
2023-05-22T05:08:23.615Z,77.6
2023-05-22T05:09:24.782Z,77.6
2023-05-22T05:10:25.949Z,77.6
2023-05-22T05:11:27.108Z,77.6
2023-05-22T05:12:28.296Z,77.6
2023-05-22T05:13:29.467Z,77.6
2023-05-22T05:14:30.611Z,77.6
2023-05-22T05:15:31.791Z,77.4
2023-05-22T05:16:33.043Z,77.2
2023-05-22T05:17:34.243Z,77
2023-05-22T05:18:35.413Z,76.8
2023-05-22T05:19:38.002Z,76.6
2023-05-22T05:20:39.907Z,76.4
2023-05-22T05:21:41.226Z,76.2
2023-05-22T05:22:42.446Z,76
2023-05-22T05:23:43.597Z,75.8
2023-05-22T05:24:45.144Z,75.7
2023-05-22T05:25:46.309Z,75.5
2023-05-22T05:26:49.496Z,75.4
2023-05-22T05:27:50.657Z,75.2
2023-05-22T05:28:51.899Z,75.1
2023-05-22T05:29:53.042Z,75
2023-05-22T05:30:54.220Z,74.8
2023-05-22T05:31:55.429Z,74.7
2023-05-22T05:32:56.772Z,74.6
2023-05-22T05:33:57.925Z,74.4
2023-05-22T05:34:59.094Z,74.3
2023-05-22T05:36:00.259Z,74.2
2023-05-22T05:37:01.417Z,74.1
2023-05-22T05:38:02.582Z,73.9
2023-05-22T05:39:03.756Z,73.8
2023-05-22T05:40:05.038Z,73.7
2023-05-22T05:41:06.209Z,73.6
2023-05-22T05:42:07.385Z,73.5
2023-05-22T05:43:10.056Z,73.3
2023-05-22T05:44:11.361Z,73.1
2023-05-22T05:45:12.527Z,73
2023-05-22T05:46:13.714Z,72.8
2023-05-22T05:47:14.867Z,72.7
2023-05-22T05:48:16.041Z,72.6
2023-05-22T05:49:17.197Z,72.6
2023-05-22T05:50:18.379Z,72.4
2023-05-22T05:51:19.535Z,72.2
2023-05-22T05:52:21.328Z,72.1
2023-05-22T05:53:23.060Z,71.9
2023-05-22T05:54:24.224Z,71.7
2023-05-22T05:55:25.408Z,71.6
2023-05-22T05:56:26.558Z,71.4
2023-05-22T05:57:27.725Z,71.3
2023-05-22T05:58:28.931Z,71.2
2023-05-22T05:59:30.125Z,71
2023-05-22T06:00:31.303Z,70.9
2023-05-22T06:01:32.464Z,70.7
2023-05-22T06:02:34.002Z,70.5
2023-05-22T06:03:35.496Z,70.4
2023-05-22T06:04:36.808Z,70.3
2023-05-22T06:05:38.091Z,70.1
2023-05-22T06:06:39.341Z,70
2023-05-22T06:07:40.681Z,69.8
2023-05-22T06:08:41.848Z,69.7
2023-05-22T06:09:43.018Z,69.6
2023-05-22T06:10:44.174Z,69.5
2023-05-22T06:11:48.460Z,69.4
2023-05-22T06:12:49.584Z,69.2
2023-05-22T06:13:50.767Z,69.1
2023-05-22T06:14:52.088Z,69
2023-05-22T06:15:53.349Z,68.9
2023-05-22T06:16:54.668Z,68.8
2023-05-22T06:17:55.894Z,68.7
2023-05-22T06:18:57.121Z,68.6
2023-05-22T06:19:58.281Z,68.5
2023-05-22T06:20:59.470Z,68.5
2023-05-22T06:22:00.629Z,68.4
2023-05-22T06:23:01.800Z,68.3
2023-05-22T06:24:03.003Z,68.2
2023-05-22T06:25:04.184Z,68
2023-05-22T06:26:05.341Z,67.7
2023-05-22T06:27:06.509Z,67.5
2023-05-22T06:28:07.699Z,67.4
2023-05-22T06:29:08.843Z,67.2
2023-05-22T06:30:10.461Z,67.1
2023-05-22T06:31:11.638Z,67
2023-05-22T06:32:12.960Z,67
2023-05-22T06:33:14.224Z,66.9
2023-05-22T06:34:15.745Z,66.9
2023-05-22T06:35:17.046Z,66.8
2023-05-22T06:36:18.217Z,66.8
2023-05-22T06:37:19.383Z,66.6
2023-05-22T06:38:20.553Z,66.5
2023-05-22T06:39:21.750Z,66.4
2023-05-22T06:40:22.880Z,66.3
2023-05-22T06:41:24.046Z,66.1
2023-05-22T06:42:25.213Z,66
2023-05-22T06:43:26.378Z,65.9
2023-05-22T06:44:27.541Z,65.8
2023-05-22T06:45:28.796Z,65.5
2023-05-22T06:46:30.282Z,65.3
2023-05-22T06:47:31.621Z,65.1
2023-05-22T06:48:32.765Z,65
2023-05-22T06:49:33.932Z,64.9
2023-05-22T06:50:35.102Z,64.9
2023-05-22T06:51:36.261Z,64.7
2023-05-22T06:52:37.425Z,64.6
2023-05-22T06:53:38.600Z,64.3
2023-05-22T06:54:39.763Z,64.2
2023-05-22T06:55:40.951Z,63.9
2023-05-22T06:56:42.118Z,63.7
2023-05-22T06:57:43.307Z,63.5
2023-05-22T06:58:44.454Z,63.4
2023-05-22T06:59:45.616Z,63.2
2023-05-22T07:00:46.897Z,63
2023-05-22T07:01:48.297Z,62.9
2023-05-22T07:02:49.600Z,62.7
2023-05-22T07:03:50.769Z,62.4
2023-05-22T07:04:54.582Z,62.2
2023-05-22T07:05:55.837Z,62
2023-05-22T07:06:56.978Z,61.8
2023-05-22T07:07:58.236Z,61.6
2023-05-22T07:08:59.433Z,61.4
2023-05-22T07:10:00.606Z,61.1
2023-05-22T07:11:01.811Z,60.9
2023-05-22T07:12:02.985Z,60.6
2023-05-22T07:13:04.167Z,60.3
2023-05-22T07:14:08.492Z,60
2023-05-22T07:15:09.664Z,59.8
2023-05-22T07:16:10.990Z,59.5
2023-05-22T07:17:12.129Z,59.2
2023-05-22T07:18:13.455Z,58.9
2023-05-22T07:19:14.757Z,58.5
2023-05-22T07:20:15.930Z,58.1
2023-05-22T07:21:17.090Z,57.8
2023-05-22T07:22:19.269Z,57.5
2023-05-22T07:23:20.430Z,57.1
2023-05-22T07:24:21.602Z,56.6
2023-05-22T07:25:22.756Z,56.4
2023-05-22T07:26:23.922Z,56.1
2023-05-22T07:27:25.285Z,55.8
2023-05-22T07:28:26.460Z,55.5
2023-05-22T07:29:27.614Z,55.2
2023-05-22T07:30:28.782Z,55
2023-05-22T07:31:33.216Z,54.7
2023-05-22T07:32:34.587Z,54.2
2023-05-22T07:33:35.745Z,54
2023-05-22T07:34:36.904Z,53.7
2023-05-22T07:35:38.083Z,53.5
2023-05-22T07:36:39.256Z,53.3
2023-05-22T07:37:40.413Z,53.1
2023-05-22T07:38:41.582Z,52.9
2023-05-22T07:39:42.746Z,52.8
2023-05-22T07:40:43.914Z,52.4
2023-05-22T07:41:45.113Z,52.1
2023-05-22T07:42:46.254Z,51.7
2023-05-22T07:43:47.420Z,51.2
2023-05-22T07:44:48.643Z,50.9
2023-05-22T07:45:49.837Z,50.7
2023-05-22T07:46:51.403Z,50.3
2023-05-22T07:47:57.108Z,50
2023-05-22T07:48:58.266Z,49.7
2023-05-22T07:49:59.431Z,49.3
2023-05-22T07:51:00.651Z,49.1
2023-05-22T07:52:01.877Z,48.9
2023-05-22T07:53:03.024Z,48.6
2023-05-22T07:54:04.241Z,48.4
2023-05-22T07:55:05.396Z,48.4
2023-05-22T07:56:09.518Z,48.4
2023-05-22T07:57:10.660Z,48.3
2023-05-22T07:58:11.808Z,48.2
2023-05-22T07:59:12.979Z,48.1
2023-05-22T08:00:14.736Z,48
2023-05-22T08:01:16.004Z,48
2023-05-22T08:02:19.931Z,47.8
2023-05-22T08:03:24.974Z,47.6
2023-05-22T08:04:26.714Z,47.5
2023-05-22T08:05:27.903Z,47.4
2023-05-22T08:06:29.167Z,47.4
2023-05-22T08:07:30.478Z,47.3
2023-05-22T08:08:32.834Z,47.2
2023-05-22T08:09:34.006Z,47.1
2023-05-22T08:11:05.001Z,46.8
2023-05-22T08:12:08.868Z,46.6
2023-05-22T08:13:10.498Z,46.4
2023-05-22T08:14:11.645Z,46.4
2023-05-22T08:15:13.084Z,46.3
2023-05-22T08:16:14.246Z,46
2023-05-22T08:17:15.744Z,45.8
2023-05-22T08:18:19.928Z,45.8
2023-05-22T08:19:21.602Z,45.8
2023-05-22T08:20:23.031Z,45.7
2023-05-22T08:21:24.195Z,45.9
2023-05-22T08:22:25.374Z,46
2023-05-22T08:23:26.521Z,46.2
2023-05-22T08:24:27.680Z,46.2
2023-05-22T08:25:28.861Z,46.2
2023-05-22T08:26:32.686Z,46.2
2023-05-22T08:27:36.031Z,46.1
2023-05-22T08:28:37.228Z,46
2023-05-22T08:29:38.835Z,45.8
2023-05-22T08:30:43.175Z,45.7
2023-05-22T08:31:47.181Z,45.9
2023-05-22T08:32:48.433Z,46
2023-05-22T08:33:49.932Z,46
2023-05-22T08:34:51.072Z,45.7
2023-05-22T08:35:52.269Z,45.7
2023-05-22T08:36:53.526Z,45.4
2023-05-22T08:37:54.666Z,45.4
2023-05-22T08:38:55.820Z,45.3
2023-05-22T08:39:56.991Z,45.2
2023-05-22T08:40:58.146Z,45.2
2023-05-22T08:41:59.317Z,45
2023-05-22T08:43:00.498Z,44.9
2023-05-22T08:44:01.678Z,44.8
2023-05-22T08:45:02.838Z,44.7
2023-05-22T08:46:04.003Z,44.6
2023-05-22T08:47:05.251Z,44.6
2023-05-22T08:48:06.954Z,44.6
2023-05-22T08:49:08.427Z,44.5
2023-05-22T08:50:09.601Z,44.4
2023-05-22T08:51:10.773Z,44.4
2023-05-22T08:52:14.186Z,44.3
2023-05-22T08:53:15.327Z,44.3
2023-05-22T08:54:16.626Z,44
2023-05-22T08:55:17.843Z,43.6
2023-05-22T08:56:19.038Z,43.7
2023-05-22T08:57:20.248Z,43.9
2023-05-22T08:58:21.385Z,44.1
2023-05-22T08:59:22.548Z,43.9
2023-05-22T09:00:23.780Z,43.9
2023-05-22T09:01:25.022Z,43.9
2023-05-22T09:02:26.252Z,43.7
2023-05-22T09:03:27.755Z,43.6
2023-05-22T09:04:29.473Z,43.5
2023-05-22T09:05:30.601Z,43.4
2023-05-22T09:06:31.795Z,43.1
2023-05-22T09:07:32.957Z,42.9
2023-05-22T09:08:34.127Z,42.7
2023-05-22T09:09:35.293Z,42.7
2023-05-22T09:10:36.486Z,42.5
2023-05-22T09:11:37.671Z,42.4
2023-05-22T09:12:38.831Z,42.4
2023-05-22T09:13:39.972Z,42.2
2023-05-22T09:14:41.161Z,41.9
2023-05-22T09:15:42.319Z,41.8
2023-05-22T09:16:43.702Z,41.8
2023-05-22T09:17:44.907Z,41.7
2023-05-22T09:18:46.145Z,41.4
2023-05-22T09:19:47.454Z,41.2
2023-05-22T09:20:48.588Z,41
2023-05-22T09:21:49.741Z,41
2023-05-22T09:22:50.907Z,40.9
2023-05-22T09:23:52.225Z,40.8
2023-05-22T09:24:53.438Z,40.6
2023-05-22T09:25:54.601Z,40.6
2023-05-22T09:26:55.767Z,40.5
2023-05-22T09:27:56.931Z,40.3
2023-05-22T09:28:58.103Z,40
2023-05-22T09:29:59.292Z,40
2023-05-22T09:31:04.751Z,39.9
2023-05-22T09:32:05.945Z,39.5
2023-05-22T09:33:07.185Z,39.6
2023-05-22T09:34:08.355Z,39.5
2023-05-22T09:35:09.552Z,39.4
2023-05-22T09:36:10.690Z,39.4
2023-05-22T09:37:11.864Z,39.3
2023-05-22T09:38:13.228Z,39
2023-05-22T09:39:14.434Z,38.9
2023-05-22T09:40:15.592Z,38.6
2023-05-22T09:41:16.758Z,38.3
2023-05-22T09:42:18.021Z,38.2
2023-05-22T09:43:19.207Z,38
2023-05-22T09:44:20.374Z,37.9
2023-05-22T09:45:21.535Z,37.8
2023-05-22T09:46:22.788Z,37.5
2023-05-22T09:47:23.954Z,37.4
2023-05-22T09:48:25.117Z,37.3
2023-05-22T09:49:26.273Z,37.1
2023-05-22T09:50:27.521Z,36.9
2023-05-22T09:51:28.648Z,36.9
2023-05-22T09:52:29.835Z,36.9
2023-05-22T09:53:31.030Z,37
2023-05-22T09:54:32.240Z,36.9
2023-05-22T09:55:33.428Z,37.1
2023-05-22T09:56:40.816Z,37.3
2023-05-22T09:57:41.982Z,37.5
2023-05-22T09:58:43.132Z,37.8
2023-05-22T09:59:44.297Z,38.1
2023-05-22T10:00:45.461Z,38.3
2023-05-22T10:01:46.746Z,38.4
2023-05-22T10:02:48.017Z,38.6
2023-05-22T10:03:50.350Z,38.8
2023-05-22T10:04:51.809Z,38.9
2023-05-22T10:05:53.086Z,39
2023-05-22T10:06:54.290Z,39.1
2023-05-22T10:07:55.457Z,39.2
2023-05-22T10:08:56.619Z,39.3
2023-05-22T10:09:57.796Z,39.3
2023-05-22T10:10:59.016Z,39.3
2023-05-22T10:12:00.358Z,39.3
2023-05-22T10:13:01.502Z,39.2
2023-05-22T10:14:02.679Z,39.2
2023-05-22T10:15:03.866Z,39.3
2023-05-22T10:16:05.146Z,39.3
2023-05-22T10:17:09.057Z,39.3
2023-05-22T10:18:10.253Z,39.3
2023-05-22T10:19:11.466Z,39.1
2023-05-22T10:20:12.603Z,39
2023-05-22T10:21:14.060Z,38.8
2023-05-22T10:22:15.286Z,38.6
2023-05-22T10:23:16.685Z,38.5
2023-05-22T10:24:17.841Z,38.4
2023-05-22T10:25:19.277Z,38.3
2023-05-22T10:26:20.512Z,38.2
2023-05-22T10:27:24.870Z,38.1
2023-05-22T10:28:26.020Z,38.1
2023-05-22T10:29:27.185Z,37.9
2023-05-22T10:30:28.385Z,38
2023-05-22T10:31:29.536Z,37.7
2023-05-22T10:32:31.017Z,37.7
2023-05-22T10:33:32.300Z,37.7
2023-05-22T10:34:33.455Z,37.6
2023-05-22T10:35:34.710Z,37.6
2023-05-22T10:36:36.132Z,37.5
2023-05-22T10:37:37.297Z,37.1
2023-05-22T10:38:38.450Z,36.9
2023-05-22T10:39:42.567Z,36.7
2023-05-22T10:40:43.770Z,36.5
2023-05-22T10:41:45.034Z,36.3
2023-05-22T10:42:46.200Z,36.2
2023-05-22T10:43:47.377Z,36.3
2023-05-22T10:44:48.535Z,36.4
2023-05-22T10:45:49.738Z,36.4
2023-05-22T10:46:50.896Z,36.4
2023-05-22T10:47:52.194Z,36.5
2023-05-22T10:48:53.353Z,36.5
2023-05-22T10:49:54.529Z,36.3
2023-05-22T10:50:55.878Z,36
2023-05-22T10:52:00.330Z,35.9
2023-05-22T10:53:01.468Z,35.9
2023-05-22T10:54:02.661Z,35.8
2023-05-22T10:55:03.811Z,35.4
2023-05-22T10:56:07.686Z,35.1
2023-05-22T10:57:08.850Z,35
2023-05-22T10:58:10.032Z,35
2023-05-22T10:59:11.197Z,34.9
2023-05-22T11:00:12.399Z,34.5
2023-05-22T11:01:13.708Z,34.2
2023-05-22T11:02:15.232Z,34.1
2023-05-22T11:03:19.439Z,34.2
2023-05-22T11:04:20.697Z,34.4
2023-05-22T11:05:21.989Z,34.5
2023-05-22T11:06:23.185Z,34.3
2023-05-22T11:07:24.673Z,34
2023-05-22T11:08:25.853Z,33.8
2023-05-22T11:09:27.055Z,33.7
2023-05-22T11:10:28.276Z,33.7
2023-05-22T11:11:29.441Z,33.5
2023-05-22T11:12:30.609Z,33.4
2023-05-22T11:13:31.840Z,33.2
2023-05-22T11:14:32.989Z,33.1
2023-05-22T11:15:34.178Z,33.1
2023-05-22T11:16:35.460Z,32.9
2023-05-22T11:17:36.756Z,32.8
2023-05-22T11:18:37.920Z,32.7
2023-05-22T11:19:39.257Z,32.8
2023-05-22T11:20:41.750Z,32.8
2023-05-22T11:21:43.074Z,32.9
2023-05-22T11:22:44.478Z,32.9
2023-05-22T11:23:45.616Z,32.9
2023-05-22T11:24:46.785Z,33
2023-05-22T11:25:47.948Z,33.1
2023-05-22T11:26:49.114Z,33.1
2023-05-22T11:27:50.281Z,33.1
2023-05-22T11:28:51.445Z,33
2023-05-22T11:29:52.617Z,33
2023-05-22T11:30:54.046Z,32.8
2023-05-22T11:31:55.210Z,32.6
2023-05-22T11:32:56.391Z,32.5
2023-05-22T11:33:57.554Z,32.6
2023-05-22T11:34:58.715Z,32.7
2023-05-22T11:35:59.885Z,32.8
2023-05-22T11:37:01.043Z,33
2023-05-22T11:38:02.518Z,33.1
2023-05-22T11:39:03.645Z,33.2
2023-05-22T11:40:04.978Z,33.3
2023-05-22T11:41:06.151Z,33.1
2023-05-22T11:42:07.310Z,33.1
2023-05-22T11:43:09.279Z,33.2
2023-05-22T11:44:10.847Z,33.1
2023-05-22T11:45:12.013Z,33.1
2023-05-22T11:46:13.375Z,33.2
2023-05-22T11:47:14.515Z,33.1
2023-05-22T11:48:16.572Z,33.1
2023-05-22T11:49:17.774Z,33.4
2023-05-22T11:50:43.398Z,33.7
2023-05-22T11:51:44.741Z,33.4
2023-05-22T11:52:45.914Z,33.5
2023-05-22T11:53:47.376Z,33.4
2023-05-22T11:54:48.511Z,32.8
2023-05-22T11:55:49.659Z,33
2023-05-22T11:56:50.827Z,33.5
2023-05-22T11:57:52.018Z,33.2
2023-05-22T11:58:53.176Z,32.8
2023-05-22T11:59:54.374Z,32.6
2023-05-22T12:00:55.662Z,32.7
2023-05-22T12:01:56.815Z,32.7
2023-05-22T12:02:58.154Z,32.8
2023-05-22T12:03:59.556Z,33
2023-05-22T12:05:00.832Z,32.7
2023-05-22T12:06:02.226Z,32.6
2023-05-22T12:07:03.399Z,32.7
2023-05-22T12:08:04.566Z,32.8
2023-05-22T12:09:06.026Z,33.1
2023-05-22T12:10:07.208Z,33
2023-05-22T12:11:08.374Z,32.9
2023-05-22T12:12:09.534Z,32.4
2023-05-22T12:13:10.726Z,32.6
2023-05-22T12:14:11.892Z,32.6
2023-05-22T12:15:13.328Z,32.6
2023-05-22T12:16:14.566Z,32.8
2023-05-22T12:17:15.722Z,33
2023-05-22T12:18:16.890Z,32.9
2023-05-22T12:19:18.788Z,33.2
2023-05-22T12:20:20.155Z,32.7
2023-05-22T12:21:21.328Z,32.4
2023-05-22T12:22:24.040Z,32.9
2023-05-22T12:23:25.214Z,32.7
2023-05-22T12:24:27.004Z,32.7
2023-05-22T12:25:28.182Z,32.4
2023-05-22T12:26:29.351Z,32.6
2023-05-22T12:27:34.516Z,32.6
2023-05-22T12:28:36.513Z,32.6
2023-05-22T12:29:37.677Z,32.3
2023-05-22T12:30:39.714Z,32.4
2023-05-22T12:31:41.184Z,32.3
2023-05-22T12:32:42.491Z,31.8
2023-05-22T12:33:43.651Z,31.5
2023-05-22T12:34:44.833Z,31.2
2023-05-22T12:38:38.091Z,30.9
2023-05-22T13:06:41.948Z,31.3
2023-05-22T13:49:18.747Z,33.3
2023-05-22T14:53:14.750Z,33.8
2023-05-22T14:54:48.859Z,33.7
2023-05-22T15:02:02.546Z,33.6
2023-05-22T15:33:04.959Z,34.1
2023-05-22T15:34:18.992Z,34.3
2023-05-22T16:20:39.520Z,36.8
2023-05-22T16:24:11.600Z,37.1
2023-05-22T16:28:17.058Z,37.7
2023-05-22T16:49:45.013Z,40.6
2023-05-22T17:03:30.033Z,44.2
2023-05-22T17:05:53.223Z,44.9
2023-05-22T17:52:25.443Z,52.9
2023-05-22T17:53:26.687Z,53
2023-05-22T17:54:32.730Z,53.1
2023-05-22T17:55:36.335Z,53.2
2023-05-22T17:56:37.593Z,53.3
2023-05-22T17:57:38.765Z,53.4
2023-05-22T17:58:39.938Z,53.5
2023-05-22T17:59:44.128Z,53.6
2023-05-22T18:00:45.268Z,53.7
2023-05-22T18:01:46.560Z,53.8
2023-05-22T18:02:48.009Z,53.9
2023-05-22T18:03:52.340Z,54
2023-05-22T18:04:53.540Z,54.2
2023-05-22T18:05:57.092Z,54.3
2023-05-22T18:06:58.239Z,54.4
2023-05-22T18:07:59.819Z,54.5
2023-05-22T18:09:03.829Z,54.7
2023-05-22T18:10:05.019Z,54.8
2023-05-22T18:11:06.159Z,54.9
2023-05-22T18:13:25.448Z,55.2
2023-05-22T18:14:26.641Z,55.3
2023-05-22T18:15:27.842Z,55.4
2023-05-22T18:16:32.040Z,55.5
2023-05-22T18:17:33.348Z,55.5
2023-05-22T18:18:37.262Z,55.6
2023-05-22T18:19:38.407Z,55.7
2023-05-22T18:20:40.593Z,55.8
2023-05-22T18:21:41.914Z,55.9
2023-05-22T18:22:43.064Z,56
2023-05-22T18:23:44.649Z,56.1
2023-05-22T18:24:45.793Z,56.2
2023-05-22T18:25:46.951Z,56.3
2023-05-22T18:26:48.426Z,56.3
2023-05-22T18:27:49.585Z,56.4
2023-05-22T18:28:53.226Z,56.4
2023-05-22T18:29:54.450Z,56.5
2023-05-22T18:30:55.582Z,56.5
2023-05-22T18:31:57.169Z,56.6
2023-05-22T18:33:01.192Z,56.7
2023-05-22T18:34:02.348Z,56.8
2023-05-22T18:35:03.538Z,56.8
2023-05-22T18:36:09.967Z,56.9
2023-05-22T18:37:29.888Z,57
2023-05-22T18:38:31.036Z,57.2
2023-05-22T18:39:32.497Z,57.3
2023-05-22T18:40:33.634Z,57.4
2023-05-22T18:41:34.800Z,57.5
2023-05-22T18:42:35.986Z,57.6
2023-05-22T18:43:37.124Z,57.8
2023-05-22T18:44:38.294Z,57.9
2023-05-22T18:45:39.456Z,58
2023-05-22T18:46:40.695Z,58.1
2023-05-22T18:47:42.072Z,58.3
2023-05-22T18:48:43.230Z,58.4